Time;durP1;ratioP1;P1;durP2;ratioP2;P2;SDS_P1;SDS_P2;PMS_P1;PMS_P2;Temp;Humidity;BMP_temperature;BMP_pressure;BME280_temperature;BME280_humidity;BME280_pressure;Samples;Min_cycle;Max_cycle;Signal;HPM_P1;HPM_P2
2023/08/18 00:02:15;;;;;;;4.68;1.83;;;17.80;75.10;;;;;;4965674;28;20135;-75
2023/08/18 00:04:42;;;;;;;4.22;1.85;;;17.80;75.10;;;;;;4951493;28;20104;-75
2023/08/18 00:07:10;;;;;;;4.97;1.83;;;17.80;75.20;;;;;;4950369;28;20174;-75
2023/08/18 00:09:38;;;;;;;5.78;1.88;;;17.80;75.10;;;;;;4950412;28;20624;-75
2023/08/18 00:12:06;;;;;;;4.78;1.60;;;17.80;75.20;;;;;;4949821;28;20723;-75
2023/08/18 00:14:33;;;;;;;5.50;1.67;;;17.80;75.20;;;;;;4950017;28;20048;-75
2023/08/18 00:17:00;;;;;;;4.65;1.70;;;17.80;75.20;;;;;;4949896;28;20489;-75
2023/08/18 00:19:28;;;;;;;4.50;1.60;;;17.80;75.20;;;;;;4951685;28;20056;-75
2023/08/18 00:21:55;;;;;;;4.43;1.90;;;17.80;75.10;;;;;;4951555;28;20268;-75
2023/08/18 00:24:22;;;;;;;4.30;1.83;;;17.80;75.00;;;;;;4961941;28;20620;-75
2023/08/18 00:26:50;;;;;;;4.22;1.80;;;17.80;75.00;;;;;;4968947;28;20061;-75
2023/08/18 00:29:18;;;;;;;4.63;1.95;;;17.80;75.10;;;;;;4952860;28;21054;-76
2023/08/18 00:31:45;;;;;;;4.53;1.60;;;17.80;75.10;;;;;;4951836;28;20150;-75
2023/08/18 00:34:12;;;;;;;3.80;1.80;;;17.80;75.10;;;;;;4969423;28;20671;-75
2023/08/18 00:36:42;;;;;;;4.95;2.05;;;17.80;75.10;;;;;;4952310;28;20573;-75
2023/08/18 00:39:09;;;;;;;4.85;1.98;;;17.80;75.10;;;;;;4952239;28;20608;-75
2023/08/18 00:41:36;;;;;;;5.15;1.70;;;17.80;75.10;;;;;;4951538;28;20126;-75
2023/08/18 00:44:05;;;;;;;3.63;1.50;;;17.90;75.10;;;;;;4951283;28;20051;-76
2023/08/18 00:46:33;;;;;;;4.82;1.60;;;17.90;75.00;;;;;;4969241;28;20951;-75
2023/08/18 00:49:02;;;;;;;4.10;1.80;;;17.90;75.00;;;;;;4968050;28;20146;-76
2023/08/18 00:51:33;;;;;;;3.70;1.50;;;17.90;75.00;;;;;;4953479;28;20059;-75
2023/08/18 00:54:00;;;;;;;6.85;1.85;;;17.90;75.00;;;;;;4951723;28;20059;-75
2023/08/18 00:56:28;;;;;;;5.40;1.97;;;17.90;74.90;;;;;;4951963;28;20058;-75
2023/08/18 00:58:55;;;;;;;4.07;1.60;;;17.90;74.90;;;;;;4968457;28;20299;-75
2023/08/18 01:01:24;;;;;;;4.40;1.80;;;17.90;74.90;;;;;;4968628;28;20142;-75
2023/08/18 01:03:56;;;;;;;4.20;1.55;;;17.90;74.90;;;;;;4968702;28;20051;-75
2023/08/18 01:06:23;;;;;;;4.18;1.70;;;17.80;74.90;;;;;;4952382;28;20057;-75
2023/08/18 01:08:51;;;;;;;5.63;1.77;;;17.80;74.80;;;;;;4968593;28;20613;-75
2023/08/18 01:11:25;;;;;;;5.10;1.98;;;17.80;74.80;;;;;;4969296;28;20283;-75
2023/08/18 01:14:11;;;;;;;5.82;1.83;;;17.80;74.90;;;;;;4968560;28;20048;-75
2023/08/18 01:16:43;;;;;;;4.68;1.73;;;17.80;74.80;;;;;;4969015;28;20071;-75
2023/08/18 01:19:15;;;;;;;4.00;1.75;;;17.80;74.90;;;;;;4969931;28;20051;-75
2023/08/18 01:21:43;;;;;;;4.83;1.47;;;17.80;74.90;;;;;;4952328;28;20059;-75
2023/08/18 01:24:12;;;;;;;4.57;1.60;;;17.80;74.80;;;;;;4968223;28;20243;-75
2023/08/18 01:26:41;;;;;;;3.95;1.52;;;17.80;74.90;;;;;;4976000;28;20082;-75
2023/08/18 01:29:10;;;;;;;5.13;1.75;;;17.80;74.90;;;;;;4972041;28;20057;-75
2023/08/18 01:31:38;;;;;;;3.97;1.70;;;17.80;74.90;;;;;;4971693;28;20914;-75
2023/08/18 01:34:10;;;;;;;4.50;1.70;;;17.80;74.80;;;;;;4971424;28;20047;-75
2023/08/18 01:36:44;;;;;;;3.63;1.35;;;17.80;74.80;;;;;;4971117;28;20317;-75
2023/08/18 01:39:14;;;;;;;3.88;1.40;;;17.80;74.80;;;;;;4971668;28;20524;-75
2023/08/18 01:41:43;;;;;;;3.97;1.70;;;17.80;74.80;;;;;;4987622;28;20059;-75
2023/08/18 01:44:14;;;;;;;4.68;1.40;;;17.80;75.00;;;;;;4989594;28;20500;-75
2023/08/18 01:46:42;;;;;;;4.80;1.50;;;17.80;74.90;;;;;;4971737;28;20477;-75
2023/08/18 01:49:11;;;;;;;4.00;1.50;;;17.80;75.00;;;;;;4987831;28;20341;-75
2023/08/18 01:51:39;;;;;;;4.85;1.75;;;17.80;74.90;;;;;;4987492;28;20065;-75
2023/08/18 01:54:06;;;;;;;5.00;1.70;;;17.80;74.90;;;;;;4989047;28;20050;-75
2023/08/18 01:57:00;;;;;;;4.65;1.80;;;17.80;75.00;;;;;;4987468;28;20517;-75
2023/08/18 01:59:27;;;;;;;4.00;1.83;;;17.80;74.90;;;;;;4987870;28;20058;-75
2023/08/18 02:01:55;;;;;;;4.82;1.70;;;17.80;75.00;;;;;;4971393;28;20279;-75
2023/08/18 02:04:23;;;;;;;4.40;1.70;;;17.80;75.00;;;;;;4971499;28;20106;-75
2023/08/18 02:06:50;;;;;;;4.28;1.35;;;17.80;75.00;;;;;;4987527;28;20113;-75
2023/08/18 02:09:18;;;;;;;3.97;1.60;;;17.80;75.00;;;;;;4987797;28;20543;-75
2023/08/18 02:11:44;;;;;;;5.03;1.67;;;17.80;75.00;;;;;;4971187;28;20958;-76
2023/08/18 02:14:13;;;;;;;4.97;1.70;;;17.80;75.00;;;;;;4988891;28;20325;-75
2023/08/18 02:16:41;;;;;;;5.00;1.65;;;17.80;75.10;;;;;;4987280;28;20154;-75
2023/08/18 02:19:10;;;;;;;4.40;1.80;;;17.80;75.00;;;;;;4971096;28;20061;-75
2023/08/18 02:21:38;;;;;;;4.55;1.70;;;17.80;75.10;;;;;;4987301;28;20086;-75
2023/08/18 02:24:11;;;;;;;4.73;1.80;;;17.80;75.00;;;;;;4961075;28;20458;-75
2023/08/18 02:26:38;;;;;;;4.05;1.70;;;17.80;75.10;;;;;;4955046;28;20276;-75
2023/08/18 02:29:05;;;;;;;5.00;1.67;;;17.80;75.10;;;;;;4971455;28;20145;-75
2023/08/18 02:31:35;;;;;;;4.40;1.60;;;17.80;75.00;;;;;;4955315;28;20134;-75
2023/08/18 02:34:03;;;;;;;6.18;1.98;;;17.80;75.20;;;;;;4971206;28;20051;-75
2023/08/18 02:36:30;;;;;;;5.47;2.53;;;17.80;75.10;;;;;;4955049;28;20055;-75
2023/08/18 02:38:58;;;;;;;6.65;2.40;;;17.80;75.20;;;;;;4971029;28;20243;-75
2023/08/18 02:41:25;;;;;;;5.53;2.50;;;17.80;75.20;;;;;;4954023;28;20065;-75
2023/08/18 02:43:52;;;;;;;5.38;2.17;;;17.80;75.10;;;;;;4954835;28;20043;-75
2023/08/18 02:46:19;;;;;;;6.90;2.17;;;17.80;75.20;;;;;;4970959;28;20063;-76
2023/08/18 02:48:48;;;;;;;5.73;2.50;;;17.80;75.30;;;;;;4954785;28;20190;-75
2023/08/18 02:51:15;;;;;;;5.53;2.17;;;17.70;75.40;;;;;;4971504;28;20745;-75
2023/08/18 02:53:44;;;;;;;7.22;2.60;;;17.70;75.30;;;;;;4954818;28;20047;-75
2023/08/18 02:56:11;;;;;;;6.60;2.20;;;17.70;75.40;;;;;;4954840;28;20554;-76
2023/08/18 02:58:39;;;;;;;6.03;2.30;;;17.70;75.30;;;;;;4954120;28;20422;-75
2023/08/18 03:01:07;;;;;;;4.70;2.30;;;17.70;75.30;;;;;;4970895;28;20877;-75
2023/08/18 03:03:34;;;;;;;5.18;2.25;;;17.70;75.40;;;;;;4970839;28;20251;-76
2023/08/18 03:06:05;;;;;;;5.53;2.30;;;17.70;75.40;;;;;;4970726;28;20047;-75
2023/08/18 03:08:35;;;;;;;7.47;2.15;;;17.70;75.50;;;;;;4955085;28;20510;-75
2023/08/18 03:11:03;;;;;;;6.80;2.30;;;17.70;75.40;;;;;;4971965;28;20059;-75
2023/08/18 03:13:30;;;;;;;6.17;2.20;;;17.70;75.50;;;;;;4954207;28;20047;-76
2023/08/18 03:15:57;;;;;;;6.53;2.78;;;17.70;75.50;;;;;;4954606;28;20283;-75
2023/08/18 03:18:24;;;;;;;7.18;2.90;;;17.70;75.50;;;;;;4970767;28;20063;-75
2023/08/18 03:20:58;;;;;;;7.78;2.80;;;17.70;75.50;;;;;;4954212;28;20048;-75
2023/08/18 03:23:26;;;;;;;6.85;2.80;;;17.70;75.70;;;;;;4970456;28;20075;-75
2023/08/18 03:26:00;;;;;;;8.13;2.90;;;17.70;75.80;;;;;;4970276;28;20051;-75
2023/08/18 03:28:28;;;;;;;6.80;2.80;;;17.60;75.80;;;;;;4970397;28;20283;-75
2023/08/18 03:30:59;;;;;;;7.93;2.63;;;17.70;75.80;;;;;;4970165;28;20090;-75
2023/08/18 03:33:27;;;;;;;6.10;2.35;;;17.60;75.90;;;;;;4953937;28;20048;-75
2023/08/18 03:35:55;;;;;;;6.28;2.55;;;17.60;75.80;;;;;;4969355;28;20122;-75
2023/08/18 03:38:22;;;;;;;6.60;2.60;;;17.60;75.90;;;;;;4954277;28;20106;-75
2023/08/18 03:40:58;;;;;;;8.63;3.00;;;17.60;76.00;;;;;;4970356;28;20301;-75
2023/08/18 03:43:25;;;;;;;7.95;3.10;;;17.60;76.10;;;;;;4971531;28;20220;-75
2023/08/18 03:45:53;;;;;;;7.38;3.00;;;17.60;76.20;;;;;;4954281;28;20252;-75
2023/08/18 03:48:20;;;;;;;8.02;2.72;;;17.60;76.00;;;;;;4954598;28;20133;-75
2023/08/18 03:50:47;;;;;;;6.77;2.70;;;17.60;76.20;;;;;;4953927;28;20051;-75
2023/08/18 03:53:21;;;;;;;7.78;3.00;;;17.60;76.20;;;;;;4953814;28;20299;-75
2023/08/18 03:55:56;;;;;;;7.82;2.53;;;17.60;76.20;;;;;;4953783;28;20082;-75
2023/08/18 03:58:23;;;;;;;7.35;2.92;;;17.60;76.20;;;;;;4969388;28;20059;-75
2023/08/18 04:00:51;;;;;;;8.05;3.10;;;17.60;76.20;;;;;;4969751;28;20142;-75
2023/08/18 04:03:18;;;;;;;7.27;2.70;;;17.60;76.40;;;;;;4953389;28;20050;-75
2023/08/18 04:05:46;;;;;;;9.15;3.17;;;17.60;76.20;;;;;;4953699;28;20865;-75
2023/08/18 04:08:13;;;;;;;8.25;3.10;;;17.60;76.10;;;;;;4953985;28;20054;-75
2023/08/18 04:10:41;;;;;;;9.45;2.90;;;17.60;76.10;;;;;;4970171;28;20134;-75
2023/08/18 04:13:09;;;;;;;7.22;2.65;;;17.60;76.00;;;;;;4953592;28;20532;-75
2023/08/18 04:15:36;;;;;;;5.90;2.43;;;17.60;76.00;;;;;;4971450;28;20149;-75
2023/08/18 04:18:05;;;;;;;6.38;2.72;;;17.60;75.90;;;;;;4970774;28;20259;-75
2023/08/18 04:20:32;;;;;;;8.68;2.75;;;17.60;76.20;;;;;;4970954;28;20079;-75
2023/08/18 04:23:00;;;;;;;7.95;2.58;;;17.60;76.20;;;;;;4953274;28;20067;-75
2023/08/18 04:25:27;;;;;;;5.57;2.55;;;17.60;76.20;;;;;;4953129;28;20043;-75
2023/08/18 04:27:56;;;;;;;6.63;2.90;;;17.60;76.30;;;;;;4968489;28;20071;-75
2023/08/18 04:30:26;;;;;;;6.63;2.70;;;17.70;76.30;;;;;;4953214;28;20259;-75
2023/08/18 04:32:53;;;;;;;7.57;2.97;;;17.60;76.30;;;;;;4969352;28;20047;-75
2023/08/18 04:35:20;;;;;;;6.47;2.80;;;17.70;76.20;;;;;;4953729;28;20055;-76
2023/08/18 04:37:47;;;;;;;7.45;3.03;;;17.60;76.30;;;;;;4953049;28;20059;-75
2023/08/18 04:40:14;;;;;;;6.13;2.87;;;17.60;76.20;;;;;;4969468;28;20082;-75
2023/08/18 04:42:41;;;;;;;6.53;2.80;;;17.60;76.10;;;;;;4952961;28;20386;-75
2023/08/18 04:45:10;;;;;;;6.60;2.75;;;17.60;76.20;;;;;;4953224;28;20142;-75
2023/08/18 04:47:38;;;;;;;6.68;2.70;;;17.70;76.20;;;;;;4969501;28;20139;-76
2023/08/18 04:50:07;;;;;;;5.95;2.92;;;17.70;76.40;;;;;;4953365;28;20085;-75
2023/08/18 04:52:34;;;;;;;6.40;2.93;;;17.70;76.60;;;;;;4953297;28;20051;-75
2023/08/18 04:55:01;;;;;;;6.50;3.33;;;17.70;76.50;;;;;;4968879;28;20422;-75
2023/08/18 04:57:28;;;;;;;7.00;3.17;;;17.70;76.60;;;;;;4969111;28;20047;-75
2023/08/18 04:59:56;;;;;;;8.00;2.95;;;17.60;76.60;;;;;;4953181;28;20087;-75
2023/08/18 05:02:25;;;;;;;7.85;3.20;;;17.60;76.60;;;;;;4952316;28;20050;-75
2023/08/18 05:04:54;;;;;;;6.60;2.70;;;17.70;76.50;;;;;;4952138;28;20061;-75
2023/08/18 05:07:21;;;;;;;6.47;3.05;;;17.60;76.60;;;;;;4951770;28;20335;-75
2023/08/18 05:09:49;;;;;;;7.20;2.95;;;17.60;76.70;;;;;;4951815;28;20481;-75
2023/08/18 05:12:16;;;;;;;5.13;2.63;;;17.60;76.90;;;;;;4951908;28;20098;-75
2023/08/18 05:14:43;;;;;;;7.43;3.10;;;17.60;76.70;;;;;;4969324;28;20192;-75
2023/08/18 05:17:10;;;;;;;6.20;2.90;;;17.70;76.80;;;;;;4968090;28;20055;-75
2023/08/18 05:19:37;;;;;;;7.30;2.80;;;17.70;76.80;;;;;;4968130;28;21231;-75
2023/08/18 05:22:06;;;;;;;6.97;2.90;;;17.60;76.90;;;;;;4968141;28;20467;-75
2023/08/18 05:24:32;;;;;;;6.10;3.03;;;17.70;76.80;;;;;;4952594;28;20516;-75
2023/08/18 05:26:59;;;;;;;5.30;2.60;;;17.70;76.90;;;;;;4970531;28;20047;-75
2023/08/18 05:29:27;;;;;;;5.43;2.77;;;17.60;76.90;;;;;;4968654;28;20719;-75
2023/08/18 05:31:54;;;;;;;7.95;3.08;;;17.70;76.90;;;;;;4952639;28;20294;-75
2023/08/18 05:34:21;;;;;;;7.60;3.33;;;17.60;77.00;;;;;;4970425;28;20199;-76
2023/08/18 05:36:50;;;;;;;6.57;3.00;;;17.70;76.90;;;;;;4968488;28;20053;-75
2023/08/18 05:39:19;;;;;;;6.80;2.97;;;17.70;77.10;;;;;;4969711;28;20130;-75
2023/08/18 05:41:47;;;;;;;7.60;3.37;;;17.70;77.20;;;;;;4968487;28;20047;-75
2023/08/18 05:44:15;;;;;;;5.72;3.10;;;17.70;77.30;;;;;;4969396;28;20309;-76
2023/08/18 05:46:42;;;;;;;6.85;3.53;;;17.70;77.20;;;;;;4968785;28;20804;-75
2023/08/18 05:49:11;;;;;;;7.57;3.35;;;17.70;77.30;;;;;;4968374;28;20162;-75
2023/08/18 05:51:42;;;;;;;8.48;3.58;;;17.70;77.40;;;;;;4969844;28;20495;-75
2023/08/18 05:54:10;;;;;;;8.17;4.20;;;17.70;77.60;;;;;;4967889;28;20059;-75
2023/08/18 05:56:39;;;;;;;9.15;3.78;;;17.60;77.60;;;;;;4969975;28;20290;-75
2023/08/18 05:59:06;;;;;;;6.30;3.38;;;17.70;77.70;;;;;;4969385;28;20100;-75
2023/08/18 06:01:34;;;;;;;8.02;3.88;;;17.60;77.70;;;;;;4972739;28;20051;-75
2023/08/18 06:04:00;;;;;;;6.43;3.50;;;17.60;77.90;;;;;;4971486;28;20114;-75
2023/08/18 06:06:28;;;;;;;8.80;4.00;;;17.60;77.80;;;;;;4971706;28;20142;-75
2023/08/18 06:08:55;;;;;;;8.15;4.05;;;17.60;77.70;;;;;;4971524;28;20275;-76
2023/08/18 06:11:23;;;;;;;9.80;4.05;;;17.60;77.90;;;;;;4973165;28;20052;-75
2023/08/18 06:13:52;;;;;;;9.52;4.70;;;17.60;78.00;;;;;;4971551;28;20055;-76
2023/08/18 06:16:18;;;;;;;7.68;4.28;;;17.70;78.20;;;;;;4955608;28;20062;-75
2023/08/18 06:18:46;;;;;;;9.60;4.20;;;17.70;78.20;;;;;;4971526;28;20055;-75
2023/08/18 06:21:14;;;;;;;7.50;3.67;;;17.60;78.40;;;;;;4970853;28;20240;-76
2023/08/18 06:23:42;;;;;;;10.10;4.35;;;17.60;78.30;;;;;;4971716;28;20540;-76
2023/08/18 06:26:10;;;;;;;9.18;4.50;;;17.60;78.30;;;;;;4971024;28;20126;-76
2023/08/18 06:28:38;;;;;;;9.65;4.72;;;17.60;78.60;;;;;;4970687;28;20043;-76
2023/08/18 06:31:07;;;;;;;14.60;5.43;;;17.60;78.70;;;;;;4962311;28;20601;-77
2023/08/18 06:33:35;;;;;;;10.68;5.25;;;17.60;78.90;;;;;;4959413;28;20291;-77
2023/08/18 06:36:02;;;;;;;12.43;5.82;;;17.60;79.00;;;;;;4967867;28;20054;-77
2023/08/18 06:38:29;;;;;;;12.20;5.88;;;17.60;79.10;;;;;;4970312;28;20063;-77
2023/08/18 06:40:57;;;;;;;10.05;5.75;;;17.60;79.20;;;;;;4960954;28;20051;-77
2023/08/18 06:43:24;;;;;;;16.87;6.30;;;17.60;79.20;;;;;;4959778;28;20055;-77
2023/08/18 06:45:51;;;;;;;10.10;5.13;;;17.60;79.30;;;;;;4957986;28;20259;-77
2023/08/18 06:48:19;;;;;;;13.15;5.78;;;17.60;79.40;;;;;;4960579;28;20491;-77
2023/08/18 06:50:48;;;;;;;12.10;5.80;;;17.60;79.60;;;;;;4964827;28;20055;-76
2023/08/18 06:53:15;;;;;;;11.60;5.15;;;17.60;79.60;;;;;;4964324;28;20653;-77
2023/08/18 06:55:42;;;;;;;9.10;5.20;;;17.60;79.70;;;;;;4957558;28;20056;-74
2023/08/18 06:58:12;;;;;;;14.10;5.75;;;17.60;79.70;;;;;;4941018;28;20318;-77
2023/08/18 07:00:39;;;;;;;10.13;4.85;;;17.60;79.60;;;;;;4957908;28;20522;-76
2023/08/18 07:03:06;;;;;;;10.85;5.00;;;17.60;79.80;;;;;;4942763;28;20074;-77
2023/08/18 07:05:34;;;;;;;13.77;6.00;;;17.70;80.00;;;;;;4957404;28;20052;-77
2023/08/18 07:08:02;;;;;;;12.57;5.60;;;17.70;80.10;;;;;;4959256;28;20047;-77
2023/08/18 07:10:29;;;;;;;12.73;5.68;;;17.70;80.10;;;;;;4959275;28;20260;-77
2023/08/18 07:12:57;;;;;;;11.75;5.80;;;17.70;80.20;;;;;;4960315;28;20399;-76
2023/08/18 07:15:25;;;;;;;12.80;5.20;;;17.70;80.40;;;;;;4961678;28;20062;-76
2023/08/18 07:17:52;;;;;;;12.90;5.47;;;17.80;80.50;;;;;;4961670;28;20531;-77
2023/08/18 07:20:20;;;;;;;10.67;4.70;;;17.80;80.50;;;;;;4963218;28;20068;-77
2023/08/18 07:22:49;;;;;;;11.80;5.53;;;17.80;80.50;;;;;;4958585;28;20279;-76
2023/08/18 07:25:16;;;;;;;10.90;5.47;;;17.80;80.60;;;;;;4958499;28;20063;-76
2023/08/18 07:27:43;;;;;;;13.95;5.43;;;17.80;80.50;;;;;;4963066;28;20047;-76
2023/08/18 07:30:11;;;;;;;13.77;6.13;;;17.80;80.60;;;;;;4962526;28;20524;-76
2023/08/18 07:32:38;;;;;;;14.33;6.07;;;17.80;80.70;;;;;;4959681;28;20077;-76
2023/08/18 07:35:08;;;;;;;12.63;5.80;;;17.80;80.90;;;;;;4957473;28;20715;-76
2023/08/18 07:37:36;;;;;;;13.98;6.40;;;17.80;80.90;;;;;;4961158;28;20525;-76
2023/08/18 07:40:09;;;;;;;13.88;5.95;;;17.80;81.00;;;;;;4958389;28;20062;-76
2023/08/18 07:42:36;;;;;;;13.90;6.05;;;17.80;81.20;;;;;;4965527;28;20775;-76
2023/08/18 07:45:05;;;;;;;16.73;6.73;;;17.80;81.40;;;;;;4967682;28;20147;-75
2023/08/18 07:47:33;;;;;;;15.13;6.50;;;17.90;81.50;;;;;;4960495;28;20469;-75
2023/08/18 07:50:00;;;;;;;15.02;6.35;;;17.80;81.50;;;;;;4961726;28;20194;-75
2023/08/18 07:52:27;;;;;;;11.30;5.45;;;17.90;81.40;;;;;;4946137;28;20114;-76
2023/08/18 07:54:54;;;;;;;15.73;6.32;;;17.90;81.50;;;;;;4969661;28;20498;-76
2023/08/18 07:57:22;;;;;;;13.33;6.03;;;18.00;81.50;;;;;;4968600;28;20051;-76
2023/08/18 07:59:51;;;;;;;14.95;6.13;;;18.00;81.60;;;;;;4966223;28;20248;-77
2023/08/18 08:02:18;;;;;;;14.63;6.40;;;18.00;81.70;;;;;;4945503;28;20081;-76
2023/08/18 08:04:45;;;;;;;14.63;6.18;;;18.00;81.70;;;;;;4965043;28;20573;-77
2023/08/18 08:07:12;;;;;;;15.35;6.40;;;18.00;81.90;;;;;;4970087;28;20051;-78
2023/08/18 08:09:39;;;;;;;15.57;7.00;;;18.10;81.80;;;;;;4965741;28;20079;-77
2023/08/18 08:12:07;;;;;;;14.25;6.03;;;18.10;81.90;;;;;;4984230;28;20386;-76
2023/08/18 08:14:36;;;;;;;16.42;6.60;;;18.10;81.90;;;;;;4968090;28;20138;-76
2023/08/18 08:17:03;;;;;;;13.88;6.00;;;18.10;81.90;;;;;;4971856;28;20052;-77
2023/08/18 08:19:30;;;;;;;11.15;5.70;;;18.20;81.90;;;;;;4964350;28;20055;-76
2023/08/18 08:21:58;;;;;;;13.77;5.67;;;18.20;82.00;;;;;;4956798;28;20052;-75
2023/08/18 08:24:25;;;;;;;23.52;6.57;;;18.20;81.90;;;;;;4967244;28;20342;-76
2023/08/18 08:26:52;;;;;;;17.15;5.82;;;18.20;82.00;;;;;;4962751;28;20058;-76
2023/08/18 08:29:20;;;;;;;11.55;5.55;;;18.20;81.90;;;;;;4956008;28;20321;-76
2023/08/18 08:31:48;;;;;;;13.23;5.60;;;18.20;81.90;;;;;;4947232;28;20170;-76
2023/08/18 08:34:15;;;;;;;13.20;5.83;;;18.30;82.00;;;;;;4940768;28;21119;-76
2023/08/18 08:36:42;;;;;;;15.73;6.00;;;18.30;82.00;;;;;;4962070;28;20345;-76
2023/08/18 08:39:09;;;;;;;13.07;6.15;;;18.30;82.00;;;;;;4961299;28;20530;-77
2023/08/18 08:41:36;;;;;;;12.73;5.75;;;18.30;82.00;;;;;;4962131;28;20422;-77
2023/08/18 08:44:03;;;;;;;10.90;5.70;;;18.30;82.00;;;;;;4960400;28;20134;-77
2023/08/18 08:46:31;;;;;;;12.03;6.10;;;18.30;82.10;;;;;;4961895;28;20511;-77
2023/08/18 08:49:04;;;;;;;11.98;6.10;;;18.40;82.20;;;;;;4964899;28;21388;-76
2023/08/18 08:51:36;;;;;;;31.10;8.10;;;18.40;82.30;;;;;;4951542;28;20043;-76
2023/08/18 08:54:07;;;;;;;15.60;6.22;;;18.40;82.40;;;;;;4960094;28;20095;-77
2023/08/18 08:56:38;;;;;;;12.95;6.75;;;18.50;82.60;;;;;;4964138;28;20061;-77
2023/08/18 08:59:06;;;;;;;11.63;6.50;;;18.50;82.50;;;;;;4967140;28;20544;-75
2023/08/18 09:01:33;;;;;;;15.07;6.72;;;18.50;82.40;;;;;;4967304;28;20275;-75
2023/08/18 09:04:04;;;;;;;15.70;7.25;;;18.60;82.60;;;;;;4969023;28;20723;-75
2023/08/18 09:06:31;;;;;;;25.02;7.22;;;18.60;82.70;;;;;;4966136;28;20130;-74
2023/08/18 09:09:00;;;;;;;15.80;7.25;;;18.60;82.70;;;;;;4965380;28;20529;-75
2023/08/18 09:11:41;;;;;;;15.50;7.17;;;18.70;82.70;;;;;;4965712;28;20142;-75
2023/08/18 09:14:09;;;;;;;16.13;7.05;;;18.70;82.80;;;;;;4968526;28;20271;-75
2023/08/18 09:16:36;;;;;;;12.25;6.28;;;18.70;82.80;;;;;;4967188;28;20051;-75
2023/08/18 09:19:06;;;;;;;13.15;6.95;;;18.80;82.70;;;;;;4967973;28;20134;-74
2023/08/18 09:21:35;;;;;;;15.13;7.03;;;18.80;82.60;;;;;;4963531;28;20054;-75
2023/08/18 09:24:02;;;;;;;15.33;7.13;;;18.90;82.70;;;;;;4952271;28;20058;-76
2023/08/18 09:26:29;;;;;;;15.10;7.40;;;18.90;82.70;;;;;;4968519;28;20262;-77
2023/08/18 09:28:56;;;;;;;16.70;7.97;;;19.00;82.80;;;;;;4968854;28;20051;-75
2023/08/18 09:31:23;;;;;;;14.95;7.72;;;19.00;82.80;;;;;;4967507;28;20054;-75
2023/08/18 09:33:51;;;;;;;13.98;7.20;;;19.10;82.80;;;;;;4969502;28;20052;-74
2023/08/18 09:36:20;;;;;;;15.17;7.07;;;19.10;82.80;;;;;;4966553;28;20138;-75
2023/08/18 09:38:47;;;;;;;15.20;7.68;;;19.20;82.80;;;;;;4963975;28;20260;-75
2023/08/18 09:41:18;;;;;;;13.88;6.50;;;19.20;82.60;;;;;;4962598;28;20044;-75
2023/08/18 09:43:45;;;;;;;17.55;7.93;;;19.20;82.60;;;;;;4963586;28;20050;-75
2023/08/18 09:46:15;;;;;;;17.00;7.80;;;19.30;82.60;;;;;;4964726;28;20050;-75
2023/08/18 09:48:49;;;;;;;15.63;8.07;;;19.30;82.60;;;;;;4965664;28;20425;-75
2023/08/18 09:51:20;;;;;;;16.13;7.15;;;19.30;82.50;;;;;;4961357;28;20329;-75
2023/08/18 09:53:56;;;;;;;16.67;7.60;;;19.40;82.50;;;;;;4962311;28;21052;-75
2023/08/18 09:56:27;;;;;;;13.98;7.53;;;19.40;82.40;;;;;;4966403;28;20125;-76
2023/08/18 09:59:04;;;;;;;14.77;7.35;;;19.40;82.30;;;;;;4967395;28;20082;-76
2023/08/18 10:01:36;;;;;;;13.37;6.77;;;19.50;82.30;;;;;;4962194;28;20087;-75
2023/08/18 10:04:03;;;;;;;13.15;6.35;;;19.50;82.30;;;;;;4968935;28;20255;-75
2023/08/18 10:06:31;;;;;;;11.68;5.88;;;19.50;82.20;;;;;;4960549;28;20062;-75
2023/08/18 10:09:01;;;;;;;13.35;6.47;;;19.50;82.30;;;;;;4971357;28;20055;-76
2023/08/18 10:11:29;;;;;;;14.05;7.05;;;19.60;82.30;;;;;;4957558;28;20059;-76
2023/08/18 10:13:57;;;;;;;12.20;6.73;;;19.60;82.10;;;;;;4962071;28;20094;-74
2023/08/18 10:16:25;;;;;;;12.48;7.00;;;19.70;82.20;;;;;;4970736;28;20278;-74
2023/08/18 10:18:56;;;;;;;12.63;6.32;;;19.70;82.10;;;;;;4968672;28;20059;-74
2023/08/18 10:21:28;;;;;;;12.18;7.07;;;19.70;82.20;;;;;;4970384;28;20055;-74
2023/08/18 10:23:56;;;;;;;12.90;7.32;;;19.70;82.10;;;;;;4971348;28;20127;-74
2023/08/18 10:26:25;;;;;;;12.23;6.80;;;19.80;82.10;;;;;;4971063;28;20062;-74
2023/08/18 10:28:53;;;;;;;13.65;6.63;;;19.90;81.90;;;;;;4969680;28;20829;-75
2023/08/18 10:31:21;;;;;;;11.00;7.00;;;19.90;81.90;;;;;;4969821;28;20047;-75
2023/08/18 10:33:49;;;;;;;14.95;7.07;;;20.00;82.00;;;;;;4971347;28;20062;-74
2023/08/18 10:36:21;;;;;;;12.27;7.13;;;20.00;82.10;;;;;;4969962;28;20047;-74
2023/08/18 10:38:48;;;;;;;12.93;7.30;;;20.00;82.10;;;;;;4971391;28;20431;-74
2023/08/18 10:41:26;;;;;;;14.23;7.50;;;20.00;82.10;;;;;;4970710;28;20311;-74
2023/08/18 10:43:57;;;;;;;11.52;7.45;;;20.10;82.00;;;;;;4967682;28;20058;-74
2023/08/18 10:46:34;;;;;;;12.75;6.75;;;20.10;82.00;;;;;;4970615;28;20059;-74
2023/08/18 10:49:01;;;;;;;13.10;7.20;;;20.20;82.00;;;;;;4972074;28;20149;-74
2023/08/18 10:51:28;;;;;;;11.13;7.20;;;20.20;81.90;;;;;;4970717;28;20146;-74
2023/08/18 10:53:56;;;;;;;19.20;8.52;;;20.30;81.80;;;;;;4969295;28;21218;-75
2023/08/18 10:56:23;;;;;;;14.65;8.25;;;20.30;81.80;;;;;;4963429;28;20366;-75
2023/08/18 10:58:52;;;;;;;13.35;7.20;;;20.30;81.60;;;;;;4965230;28;20452;-75
2023/08/18 11:01:22;;;;;;;12.50;6.85;;;20.40;81.60;;;;;;4950816;28;20055;-74
2023/08/18 11:03:49;;;;;;;13.73;8.20;;;20.50;81.60;;;;;;4969535;28;20053;-74
2023/08/18 11:06:16;;;;;;;12.23;7.80;;;20.50;81.50;;;;;;4970415;28;20275;-76
2023/08/18 11:08:44;;;;;;;13.45;7.90;;;20.50;81.50;;;;;;4967489;28;20122;-75
2023/08/18 11:11:11;;;;;;;12.40;7.70;;;20.50;81.40;;;;;;4946481;28;20510;-75
2023/08/18 11:13:39;;;;;;;11.18;6.95;;;20.60;81.40;;;;;;4964283;28;21084;-75
2023/08/18 11:16:35;;;;;;;15.97;7.60;;;20.60;81.40;;;;;;4961544;28;20715;-75
2023/08/18 11:19:04;;;;;;;12.30;7.07;;;20.60;81.20;;;;;;4969161;28;20303;-75
2023/08/18 11:21:31;;;;;;;11.48;7.28;;;20.70;81.30;;;;;;4968890;28;20047;-75
2023/08/18 11:23:58;;;;;;;11.23;6.95;;;20.70;81.30;;;;;;4969547;28;20069;-75
2023/08/18 11:26:25;;;;;;;12.68;7.90;;;20.80;81.20;;;;;;4969408;28;20138;-74
2023/08/18 11:28:53;;;;;;;13.20;8.17;;;20.80;81.20;;;;;;4969504;28;20050;-75
2023/08/18 11:31:21;;;;;;;11.88;7.88;;;20.90;81.30;;;;;;4969883;28;20284;-75
2023/08/18 11:33:50;;;;;;;11.27;7.32;;;20.90;81.40;;;;;;4970560;28;20056;-75
2023/08/18 11:36:18;;;;;;;13.25;8.48;;;21.00;81.20;;;;;;4971536;28;20082;-75
2023/08/18 11:38:45;;;;;;;13.07;7.82;;;21.00;81.10;;;;;;4953607;28;20050;-75
2023/08/18 11:41:12;;;;;;;13.83;8.63;;;21.10;81.20;;;;;;4971478;28;20047;-75
2023/08/18 11:43:41;;;;;;;12.80;8.80;;;21.10;81.30;;;;;;4969992;28;20319;-75
2023/08/18 11:46:08;;;;;;;12.77;8.68;;;21.20;81.50;;;;;;4970394;28;20680;-75
2023/08/18 11:48:35;;;;;;;11.80;7.95;;;21.30;81.60;;;;;;4970445;28;20134;-75
2023/08/18 11:51:04;;;;;;;15.65;8.50;;;21.40;81.60;;;;;;4971259;28;20118;-75
2023/08/18 11:53:31;;;;;;;14.27;8.97;;;21.50;81.70;;;;;;4969819;28;20058;-75
2023/08/18 11:55:58;;;;;;;32.17;10.15;;;21.60;81.60;;;;;;4970095;28;20263;-75
2023/08/18 11:58:25;;;;;;;12.90;7.97;;;21.70;81.60;;;;;;4968706;28;20139;-75
2023/08/18 12:00:52;;;;;;;12.20;8.13;;;21.80;81.60;;;;;;4970858;28;20392;-75
2023/08/18 12:03:22;;;;;;;12.50;8.38;;;21.90;81.50;;;;;;4969883;28;20066;-75
2023/08/18 12:05:49;;;;;;;12.17;8.37;;;21.90;81.30;;;;;;4971355;28;20051;-75
2023/08/18 12:08:18;;;;;;;10.82;8.25;;;22.00;81.00;;;;;;4969348;28;20268;-75
2023/08/18 12:10:48;;;;;;;17.17;8.73;;;22.10;80.80;;;;;;4971607;28;20502;-75
2023/08/18 12:13:15;;;;;;;12.20;8.00;;;22.20;80.60;;;;;;4970932;28;20129;-75
2023/08/18 12:15:43;;;;;;;13.32;8.40;;;22.30;80.30;;;;;;4969400;28;20058;-75
2023/08/18 12:18:10;;;;;;;11.57;8.43;;;22.30;79.90;;;;;;4970952;28;20119;-75
2023/08/18 12:20:37;;;;;;;18.60;10.00;;;22.40;79.70;;;;;;4970376;28;20392;-75
2023/08/18 12:23:05;;;;;;;12.40;8.65;;;22.50;79.50;;;;;;4969531;28;20051;-75
2023/08/18 12:25:33;;;;;;;12.43;8.35;;;22.50;79.30;;;;;;4968876;28;20118;-75
2023/08/18 12:28:00;;;;;;;15.80;9.15;;;22.50;79.10;;;;;;4965434;28;20066;-75
2023/08/18 12:30:34;;;;;;;17.47;9.43;;;22.50;79.10;;;;;;4959193;28;20078;-75
2023/08/18 12:33:01;;;;;;;11.50;8.27;;;22.60;79.30;;;;;;4960712;28;20252;-75
2023/08/18 12:35:29;;;;;;;12.35;9.13;;;22.60;79.30;;;;;;4966585;28;20051;-75
2023/08/18 12:37:56;;;;;;;12.48;8.40;;;22.70;79.20;;;;;;4963162;28;20126;-75
2023/08/18 12:40:24;;;;;;;12.50;8.27;;;22.70;79.10;;;;;;4965837;28;20531;-70
2023/08/18 12:42:53;;;;;;;10.47;7.43;;;22.80;79.10;;;;;;4965245;28;20130;-73
2023/08/18 12:45:20;;;;;;;11.90;8.55;;;22.80;79.30;;;;;;4962596;28;20310;-74
2023/08/18 12:47:48;;;;;;;13.88;8.52;;;22.90;79.60;;;;;;4963886;28;20109;-74